sensor_id;sensor_type;location;lat;lon;timestamp;P1;durP1;ratioP1;P2;durP2;ratioP2
72645;SDS011;60687;53.876;10.674;2023-04-01T00:09:20;11.57;;;5.63;;
72645;SDS011;60687;53.876;10.674;2023-04-01T00:19:23;10.77;;;5.72;;
72645;SDS011;60687;53.876;10.674;2023-04-01T00:29:26;13.27;;;5.17;;
72645;SDS011;60687;53.876;10.674;2023-04-01T00:39:31;12.60;;;7.10;;
72645;SDS011;60687;53.876;10.674;2023-04-01T00:49:36;11.60;;;5.70;;
72645;SDS011;60687;53.876;10.674;2023-04-01T00:59:42;10.60;;;4.87;;
72645;SDS011;60687;53.876;10.674;2023-04-01T01:09:51;11.30;;;5.50;;
72645;SDS011;60687;53.876;10.674;2023-04-01T01:20:10;11.50;;;5.82;;
72645;SDS011;60687;53.876;10.674;2023-04-01T01:30:36;11.77;;;5.50;;
72645;SDS011;60687;53.876;10.674;2023-04-01T01:40:48;12.33;;;5.80;;
72645;SDS011;60687;53.876;10.674;2023-04-01T01:50:55;12.18;;;5.85;;
72645;SDS011;60687;53.876;10.674;2023-04-01T02:01:01;12.23;;;6.13;;
72645;SDS011;60687;53.876;10.674;2023-04-01T02:11:08;12.40;;;5.33;;
72645;SDS011;60687;53.876;10.674;2023-04-01T02:21:17;11.50;;;5.33;;
72645;SDS011;60687;53.876;10.674;2023-04-01T02:31:23;10.75;;;4.72;;
72645;SDS011;60687;53.876;10.674;2023-04-01T02:41:28;12.17;;;5.43;;
72645;SDS011;60687;53.876;10.674;2023-04-01T02:51:31;9.63;;;4.70;;
72645;SDS011;60687;53.876;10.674;2023-04-01T03:01:36;10.27;;;5.00;;
72645;SDS011;60687;53.876;10.674;2023-04-01T03:11:38;8.33;;;3.60;;
72645;SDS011;60687;53.876;10.674;2023-04-01T03:21:42;9.23;;;4.40;;
72645;SDS011;60687;53.876;10.674;2023-04-01T03:31:45;8.85;;;4.65;;
72645;SDS011;60687;53.876;10.674;2023-04-01T03:41:49;9.20;;;4.57;;
72645;SDS011;60687;53.876;10.674;2023-04-01T03:51:52;7.63;;;3.60;;
72645;SDS011;60687;53.876;10.674;2023-04-01T04:01:57;8.53;;;3.70;;
72645;SDS011;60687;53.876;10.674;2023-04-01T04:12:00;7.65;;;3.25;;
72645;SDS011;60687;53.876;10.674;2023-04-01T04:22:05;7.60;;;3.50;;
72645;SDS011;60687;53.876;10.674;2023-04-01T04:32:07;6.80;;;2.80;;
72645;SDS011;60687;53.876;10.674;2023-04-01T04:42:11;7.43;;;3.28;;
72645;SDS011;60687;53.876;10.674;2023-04-01T04:52:14;8.10;;;3.27;;
72645;SDS011;60687;53.876;10.674;2023-04-01T05:02:18;6.83;;;2.90;;
72645;SDS011;60687;53.876;10.674;2023-04-01T05:12:21;7.43;;;3.17;;
72645;SDS011;60687;53.876;10.674;2023-04-01T05:22:34;6.20;;;2.75;;
72645;SDS011;60687;53.876;10.674;2023-04-01T05:32:37;7.13;;;3.33;;
72645;SDS011;60687;53.876;10.674;2023-04-01T05:42:41;6.60;;;2.90;;
72645;SDS011;60687;53.876;10.674;2023-04-01T05:52:44;7.63;;;3.63;;
72645;SDS011;60687;53.876;10.674;2023-04-01T06:02:48;6.90;;;2.80;;
72645;SDS011;60687;53.876;10.674;2023-04-01T06:12:52;8.83;;;3.67;;
72645;SDS011;60687;53.876;10.674;2023-04-01T06:23:10;7.32;;;2.70;;
72645;SDS011;60687;53.876;10.674;2023-04-01T06:33:29;6.67;;;2.40;;
72645;SDS011;60687;53.876;10.674;2023-04-01T06:43:47;7.17;;;2.63;;
72645;SDS011;60687;53.876;10.674;2023-04-01T06:54:20;6.70;;;2.90;;
72645;SDS011;60687;53.876;10.674;2023-04-01T07:04:44;6.95;;;2.63;;
72645;SDS011;60687;53.876;10.674;2023-04-01T07:14:48;8.27;;;3.77;;
72645;SDS011;60687;53.876;10.674;2023-04-01T07:24:56;5.90;;;2.60;;
72645;SDS011;60687;53.876;10.674;2023-04-01T07:35:08;6.07;;;2.60;;
72645;SDS011;60687;53.876;10.674;2023-04-01T07:45:21;6.13;;;2.70;;
72645;SDS011;60687;53.876;10.674;2023-04-01T07:55:31;5.30;;;2.27;;
72645;SDS011;60687;53.876;10.674;2023-04-01T08:05:45;6.40;;;2.40;;
72645;SDS011;60687;53.876;10.674;2023-04-01T08:15:53;4.93;;;1.77;;
72645;SDS011;60687;53.876;10.674;2023-04-01T08:26:26;5.30;;;1.87;;
72645;SDS011;60687;53.876;10.674;2023-04-01T08:36:37;4.97;;;2.08;;
72645;SDS011;60687;53.876;10.674;2023-04-01T08:57:43;4.57;;;1.67;;
72645;SDS011;60687;53.876;10.674;2023-04-01T09:08:19;5.93;;;2.43;;
72645;SDS011;60687;53.876;10.674;2023-04-01T09:18:48;5.75;;;1.75;;
72645;SDS011;60687;53.876;10.674;2023-04-01T09:29:18;6.53;;;2.60;;
72645;SDS011;60687;53.876;10.674;2023-04-01T09:39:35;6.87;;;2.10;;
72645;SDS011;60687;53.876;10.674;2023-04-01T09:49:45;8.60;;;2.80;;
72645;SDS011;60687;53.876;10.674;2023-04-01T10:00:32;6.27;;;2.80;;
72645;SDS011;60687;53.876;10.674;2023-04-01T10:11:00;7.63;;;2.93;;
72645;SDS011;60687;53.876;10.674;2023-04-01T10:21:47;7.50;;;3.47;;
72645;SDS011;60687;53.876;10.674;2023-04-01T11:26:09;10.90;;;5.30;;
72645;SDS011;60687;53.876;10.674;2023-04-01T11:36:43;12.20;;;5.25;;
72645;SDS011;60687;53.876;10.674;2023-04-01T11:57:28;9.47;;;5.07;;
72645;SDS011;60687;53.876;10.674;2023-04-01T12:07:50;12.18;;;5.60;;
72645;SDS011;60687;53.876;10.674;2023-04-01T12:18:05;10.77;;;4.63;;
72645;SDS011;60687;53.876;10.674;2023-04-01T12:28:18;13.90;;;6.87;;
72645;SDS011;60687;53.876;10.674;2023-04-01T12:38:31;9.80;;;5.17;;
72645;SDS011;60687;53.876;10.674;2023-04-01T12:48:54;11.35;;;5.78;;
72645;SDS011;60687;53.876;10.674;2023-04-01T12:59:16;10.03;;;4.90;;
72645;SDS011;60687;53.876;10.674;2023-04-01T13:09:32;10.67;;;5.53;;
72645;SDS011;60687;53.876;10.674;2023-04-01T13:19:49;12.32;;;5.60;;
72645;SDS011;60687;53.876;10.674;2023-04-01T13:30:04;11.80;;;4.97;;
72645;SDS011;60687;53.876;10.674;2023-04-01T13:40:33;11.57;;;5.37;;
72645;SDS011;60687;53.876;10.674;2023-04-01T14:01:20;13.07;;;5.53;;
72645;SDS011;60687;53.876;10.674;2023-04-01T14:11:30;12.07;;;5.90;;
72645;SDS011;60687;53.876;10.674;2023-04-01T14:21:43;12.40;;;5.80;;
72645;SDS011;60687;53.876;10.674;2023-04-01T14:31:53;10.40;;;4.85;;
72645;SDS011;60687;53.876;10.674;2023-04-01T14:42:17;13.93;;;6.10;;
72645;SDS011;60687;53.876;10.674;2023-04-01T14:52:54;12.43;;;5.57;;
72645;SDS011;60687;53.876;10.674;2023-04-01T15:03:06;12.00;;;5.63;;
72645;SDS011;60687;53.876;10.674;2023-04-01T15:13:21;12.10;;;5.23;;
72645;SDS011;60687;53.876;10.674;2023-04-01T15:23:45;9.93;;;4.90;;
72645;SDS011;60687;53.876;10.674;2023-04-01T15:34:04;14.95;;;5.60;;
72645;SDS011;60687;53.876;10.674;2023-04-01T15:44:45;12.43;;;5.32;;
72645;SDS011;60687;53.876;10.674;2023-04-01T15:55:01;13.17;;;4.97;;
72645;SDS011;60687;53.876;10.674;2023-04-01T16:05:26;8.20;;;4.50;;
72645;SDS011;60687;53.876;10.674;2023-04-01T16:15:50;8.20;;;4.00;;
72645;SDS011;60687;53.876;10.674;2023-04-01T16:26:05;10.40;;;3.87;;
72645;SDS011;60687;53.876;10.674;2023-04-01T16:36:15;11.70;;;3.90;;
72645;SDS011;60687;53.876;10.674;2023-04-01T16:46:29;8.98;;;3.42;;
72645;SDS011;60687;53.876;10.674;2023-04-01T16:56:39;10.63;;;3.70;;
72645;SDS011;60687;53.876;10.674;2023-04-01T17:06:48;8.33;;;3.50;;
72645;SDS011;60687;53.876;10.674;2023-04-01T17:17:05;8.20;;;3.40;;
72645;SDS011;60687;53.876;10.674;2023-04-01T17:27:36;9.27;;;4.32;;
72645;SDS011;60687;53.876;10.674;2023-04-01T17:37:51;8.53;;;4.20;;
72645;SDS011;60687;53.876;10.674;2023-04-01T17:48:11;8.10;;;4.00;;
72645;SDS011;60687;53.876;10.674;2023-04-01T17:58:21;7.75;;;3.60;;
72645;SDS011;60687;53.876;10.674;2023-04-01T18:08:39;8.53;;;3.80;;
72645;SDS011;60687;53.876;10.674;2023-04-01T18:18:59;7.13;;;3.70;;
72645;SDS011;60687;53.876;10.674;2023-04-01T18:29:17;8.68;;;3.70;;
72645;SDS011;60687;53.876;10.674;2023-04-01T18:39:31;9.30;;;3.77;;
72645;SDS011;60687;53.876;10.674;2023-04-01T18:49:43;8.63;;;3.90;;
72645;SDS011;60687;53.876;10.674;2023-04-01T18:59:56;7.55;;;3.50;;
72645;SDS011;60687;53.876;10.674;2023-04-01T19:10:13;9.00;;;3.53;;
72645;SDS011;60687;53.876;10.674;2023-04-01T19:20:23;11.47;;;3.90;;
72645;SDS011;60687;53.876;10.674;2023-04-01T19:30:38;9.53;;;3.57;;
72645;SDS011;60687;53.876;10.674;2023-04-01T19:40:50;8.20;;;3.05;;
72645;SDS011;60687;53.876;10.674;2023-04-01T19:51:03;9.00;;;3.20;;
72645;SDS011;60687;53.876;10.674;2023-04-01T20:01:11;8.53;;;2.90;;
72645;SDS011;60687;53.876;10.674;2023-04-01T20:11:30;7.95;;;2.97;;
72645;SDS011;60687;53.876;10.674;2023-04-01T20:21:41;6.27;;;2.70;;
72645;SDS011;60687;53.876;10.674;2023-04-01T20:31:51;9.13;;;3.00;;
72645;SDS011;60687;53.876;10.674;2023-04-01T20:42:12;7.20;;;2.70;;
72645;SDS011;60687;53.876;10.674;2023-04-01T20:52:36;10.93;;;2.67;;
72645;SDS011;60687;53.876;10.674;2023-04-01T21:02:47;8.57;;;2.80;;
72645;SDS011;60687;53.876;10.674;2023-04-01T21:13:00;6.03;;;2.77;;
72645;SDS011;60687;53.876;10.674;2023-04-01T21:23:13;8.45;;;2.55;;
72645;SDS011;60687;53.876;10.674;2023-04-01T21:33:32;9.00;;;3.07;;
72645;SDS011;60687;53.876;10.674;2023-04-01T21:44:00;6.57;;;2.70;;
72645;SDS011;60687;53.876;10.674;2023-04-01T21:54:40;7.15;;;2.60;;
72645;SDS011;60687;53.876;10.674;2023-04-01T22:05:05;6.83;;;2.30;;
72645;SDS011;60687;53.876;10.674;2023-04-01T22:15:16;8.67;;;2.13;;
72645;SDS011;60687;53.876;10.674;2023-04-01T22:25:28;7.43;;;2.20;;
72645;SDS011;60687;53.876;10.674;2023-04-01T22:35:40;7.05;;;2.38;;
72645;SDS011;60687;53.876;10.674;2023-04-01T22:45:51;8.20;;;2.60;;
72645;SDS011;60687;53.876;10.674;2023-04-01T22:56:16;5.80;;;2.27;;
72645;SDS011;60687;53.876;10.674;2023-04-01T23:06:26;7.93;;;2.00;;
72645;SDS011;60687;53.876;10.674;2023-04-01T23:16:36;6.47;;;2.10;;
72645;SDS011;60687;53.876;10.674;2023-04-01T23:26:46;6.07;;;2.23;;
72645;SDS011;60687;53.876;10.674;2023-04-01T23:36:56;6.28;;;2.35;;
72645;SDS011;60687;53.876;10.674;2023-04-01T23:47:06;9.83;;;2.00;;
72645;SDS011;60687;53.876;10.674;2023-04-01T23:57:16;5.73;;;2.07;;
